メインページ
METAR-TAF:

METAR-TAF

空港 :

カーブル, アフガニスタン

カーブル国際空港

緯度: 34-38N, 経度: 069-12E, 海抜: 1789m

現時点の気象観測

当レポートは1時間29分前の23:50(UTC)に作成
変向風 3kt
気温 17°C
湿度 59%
気圧 1018 hPa
視程10km以上
1,500メートル以下は雲なし、積乱雲なし

METAR: OAKB 222350Z VRB03KT CAVOK 17/09 Q1018 NOSIG RMK BLU BLU

時間: 05:49 (01:19 UTC)

予報

当レポートは2時間14分前の23:05(UTC)に作成
予報は23日の 00時(UTC)から 23日の 24時(UTC)まで有効
変向風 2kt
視程10km以上
1,500メートル以下は雲なし、積乱雲なし
23日の 01時(UTC)から 23日の 04時(UTC)まで一時的に
視程: 4500m
煙霧
23日の 06時(UTC)から 23日の 08時(UTC)まで徐々に
北/北西の風 12kt
高度11000ftの雲はほとんどない
23日の 08時(UTC)から 23日の 15時(UTC)まで一時的に
北/北西の風 20kt、最大30ktの突風を伴う
視程: 6000m
高度6000ftの雲はほとんどない, 積乱雲.
高度9000ftの千切れ雲あり
激しい雷雨, 雨
23日の 16時(UTC)から 23日の 18時(UTC)まで徐々に
変向風 2kt
視程10km以上
1,500メートル以下は雲なし、積乱雲なし

TAF: OAKB 222305Z 2300/2324 VRB02KT CAVOK TEMPO 2301/2304 4500 HZ BECMG 2306/2308 34012KT FEW110 TEMPO 2308/2315 33020G30KT 6000 TSRA FEW060CB BKN090 BECMG 2316/2318 VRB02KT CAVOK

4,000以上の空港の気象観測と天気予報(METAR報とTAF報)

利用可能な観測所は地図上に黄色い丸と赤い丸で示す。

丸の上にカーソルを重ねると観測所名を参照できる。

次にクリックすると気象観測と天気予報を参照できる。

マップの切り替え:黒色「×」印の緑ボタンをクリックして拡大、「-」印の緑ボタンをクリックして縮小、緑色の三角印をクリックして隣りの地図に切り替え


METAR-TAF: